sensor_id;sensor_type;location;lat;lon;timestamp;pressure;altitude;pressure_sealevel;temperature;humidity
27429;BME280;14881;48.092;11.574;2023-04-02T00:01:52;94649.19;;;7.51;100.00
27429;BME280;14881;48.092;11.574;2023-04-02T00:04:21;94646.69;;;7.55;100.00
27429;BME280;14881;48.092;11.574;2023-04-02T00:06:53;94650.56;;;7.49;100.00
27429;BME280;14881;48.092;11.574;2023-04-02T00:09:27;94656.34;;;7.42;100.00
27429;BME280;14881;48.092;11.574;2023-04-02T00:11:56;94658.00;;;7.38;100.00
27429;BME280;14881;48.092;11.574;2023-04-02T00:14:27;94653.34;;;7.44;100.00
27429;BME280;14881;48.092;11.574;2023-04-02T00:16:59;94659.91;;;7.38;100.00
27429;BME280;14881;48.092;11.574;2023-04-02T00:19:31;94654.78;;;7.36;100.00
27429;BME280;14881;48.092;11.574;2023-04-02T00:22:05;94655.41;;;7.28;100.00
27429;BME280;14881;48.092;11.574;2023-04-02T00:24:34;94655.00;;;7.21;100.00
27429;BME280;14881;48.092;11.574;2023-04-02T00:27:02;94667.13;;;7.23;100.00
27429;BME280;14881;48.092;11.574;2023-04-02T00:29:29;94657.41;;;7.22;100.00
27429;BME280;14881;48.092;11.574;2023-04-02T00:31:58;94664.75;;;7.17;100.00
27429;BME280;14881;48.092;11.574;2023-04-02T00:34:32;94665.56;;;7.17;100.00
27429;BME280;14881;48.092;11.574;2023-04-02T00:37:03;94656.94;;;7.15;100.00
27429;BME280;14881;48.092;11.574;2023-04-02T00:39:37;94665.91;;;7.11;100.00
27429;BME280;14881;48.092;11.574;2023-04-02T00:42:10;94662.91;;;7.12;100.00
27429;BME280;14881;48.092;11.574;2023-04-02T00:44:40;94668.03;;;7.14;100.00
27429;BME280;14881;48.092;11.574;2023-04-02T00:47:16;94670.72;;;7.14;100.00
27429;BME280;14881;48.092;11.574;2023-04-02T00:49:45;94665.59;;;7.12;100.00
27429;BME280;14881;48.092;11.574;2023-04-02T00:52:16;94667.13;;;7.23;100.00
27429;BME280;14881;48.092;11.574;2023-04-02T00:54:48;94673.09;;;7.20;100.00
27429;BME280;14881;48.092;11.574;2023-04-02T00:57:19;94662.56;;;7.19;100.00
27429;BME280;14881;48.092;11.574;2023-04-02T00:59:55;94668.78;;;7.19;100.00
27429;BME280;14881;48.092;11.574;2023-04-02T01:02:27;94671.19;;;7.21;100.00
27429;BME280;14881;48.092;11.574;2023-04-02T01:04:57;94670.81;;;7.27;100.00
27429;BME280;14881;48.092;11.574;2023-04-02T01:07:40;94674.66;;;7.26;100.00
27429;BME280;14881;48.092;11.574;2023-04-02T01:10:27;94680.34;;;7.25;100.00
27429;BME280;14881;48.092;11.574;2023-04-02T01:13:06;94671.44;;;7.24;100.00
27429;BME280;14881;48.092;11.574;2023-04-02T01:15:38;94681.19;;;7.20;100.00
27429;BME280;14881;48.092;11.574;2023-04-02T01:18:21;94672.50;;;7.23;100.00
27429;BME280;14881;48.092;11.574;2023-04-02T01:21:15;94675.50;;;7.22;100.00
27429;BME280;14881;48.092;11.574;2023-04-02T01:24:00;94679.63;;;7.14;100.00
27429;BME280;14881;48.092;11.574;2023-04-02T01:26:45;94680.16;;;7.16;100.00
27429;BME280;14881;48.092;11.574;2023-04-02T01:29:17;94674.53;;;7.13;100.00
27429;BME280;14881;48.092;11.574;2023-04-02T01:31:48;94678.91;;;7.09;100.00
27429;BME280;14881;48.092;11.574;2023-04-02T01:34:19;94682.09;;;7.11;100.00
27429;BME280;14881;48.092;11.574;2023-04-02T01:39:47;94687.72;;;7.14;100.00
27429;BME280;14881;48.092;11.574;2023-04-02T01:42:20;94683.09;;;7.20;100.00
27429;BME280;14881;48.092;11.574;2023-04-02T01:44:58;94685.56;;;7.16;100.00
27429;BME280;14881;48.092;11.574;2023-04-02T01:47:27;94685.56;;;7.16;100.00
27429;BME280;14881;48.092;11.574;2023-04-02T01:49:57;94690.44;;;7.14;100.00
27429;BME280;14881;48.092;11.574;2023-04-02T01:52:34;94696.66;;;7.15;100.00
27429;BME280;14881;48.092;11.574;2023-04-02T01:55:03;94691.47;;;7.18;100.00
27429;BME280;14881;48.092;11.574;2023-04-02T01:57:31;94699.09;;;7.11;100.00
27429;BME280;14881;48.092;11.574;2023-04-02T02:00:01;94711.53;;;7.12;100.00
27429;BME280;14881;48.092;11.574;2023-04-02T02:02:34;94707.44;;;7.15;100.00
27429;BME280;14881;48.092;11.574;2023-04-02T02:05:02;94706.94;;;7.13;100.00
27429;BME280;14881;48.092;11.574;2023-04-02T02:07:30;94709.34;;;7.14;100.00
27429;BME280;14881;48.092;11.574;2023-04-02T02:09:58;94704.97;;;7.18;100.00
27429;BME280;14881;48.092;11.574;2023-04-02T02:12:26;94708.53;;;7.14;100.00
27429;BME280;14881;48.092;11.574;2023-04-02T02:14:54;94708.81;;;7.12;100.00
27429;BME280;14881;48.092;11.574;2023-04-02T02:17:26;94720.38;;;7.18;100.00
27429;BME280;14881;48.092;11.574;2023-04-02T02:20:00;94712.03;;;7.14;100.00
27429;BME280;14881;48.092;11.574;2023-04-02T02:22:34;94712.00;;;7.19;100.00
27429;BME280;14881;48.092;11.574;2023-04-02T02:25:06;94720.94;;;7.15;100.00
27429;BME280;14881;48.092;11.574;2023-04-02T02:27:56;94714.97;;;7.18;100.00
27429;BME280;14881;48.092;11.574;2023-04-02T02:30:27;94726.63;;;7.13;100.00
27429;BME280;14881;48.092;11.574;2023-04-02T02:33:04;94725.25;;;7.16;100.00
27429;BME280;14881;48.092;11.574;2023-04-02T02:35:39;94721.47;;;7.17;100.00
27429;BME280;14881;48.092;11.574;2023-04-02T02:38:29;94724.41;;;7.20;100.00
27429;BME280;14881;48.092;11.574;2023-04-02T02:41:05;94730.91;;;7.19;100.00
27429;BME280;14881;48.092;11.574;2023-04-02T02:43:38;94730.38;;;7.17;100.00
27429;BME280;14881;48.092;11.574;2023-04-02T02:46:12;94733.38;;;7.16;100.00
27429;BME280;14881;48.092;11.574;2023-04-02T02:48:44;94739.28;;;7.18;100.00
27429;BME280;14881;48.092;11.574;2023-04-02T02:51:17;94735.25;;;7.15;100.00
27429;BME280;14881;48.092;11.574;2023-04-02T02:53:49;94744.16;;;7.16;100.00
27429;BME280;14881;48.092;11.574;2023-04-02T02:56:20;94748.03;;;7.10;100.00
27429;BME280;14881;48.092;11.574;2023-04-02T02:58:57;94747.72;;;7.11;100.00
27429;BME280;14881;48.092;11.574;2023-04-02T03:01:27;94743.72;;;7.09;100.00
27429;BME280;14881;48.092;11.574;2023-04-02T03:03:57;94746.72;;;7.07;100.00
27429;BME280;14881;48.092;11.574;2023-04-02T03:06:25;94751.31;;;7.07;100.00
27429;BME280;14881;48.092;11.574;2023-04-02T03:09:01;94751.31;;;7.07;100.00
27429;BME280;14881;48.092;11.574;2023-04-02T03:11:35;94752.91;;;7.08;100.00
27429;BME280;14881;48.092;11.574;2023-04-02T03:14:15;94759.69;;;7.05;100.00
27429;BME280;14881;48.092;11.574;2023-04-02T03:16:49;94757.28;;;7.04;100.00
27429;BME280;14881;48.092;11.574;2023-04-02T03:19:27;94756.13;;;7.10;100.00
27429;BME280;14881;48.092;11.574;2023-04-02T03:22:00;94749.41;;;7.07;100.00
27429;BME280;14881;48.092;11.574;2023-04-02T03:24:34;94755.09;;;7.06;100.00
27429;BME280;14881;48.092;11.574;2023-04-02T03:27:09;94767.22;;;7.08;100.00
27429;BME280;14881;48.092;11.574;2023-04-02T03:29:40;94765.53;;;7.12;100.00
27429;BME280;14881;48.092;11.574;2023-04-02T03:32:13;94768.03;;;7.09;100.00
27429;BME280;14881;48.092;11.574;2023-04-02T03:34:48;94765.09;;;7.05;100.00
27429;BME280;14881;48.092;11.574;2023-04-02T03:37:19;94766.19;;;7.04;100.00
27429;BME280;14881;48.092;11.574;2023-04-02T03:39:51;94769.66;;;7.10;100.00
27429;BME280;14881;48.092;11.574;2023-04-02T03:42:23;94773.72;;;7.07;100.00
27429;BME280;14881;48.092;11.574;2023-04-02T03:44:55;94774.03;;;7.01;100.00
27429;BME280;14881;48.092;11.574;2023-04-02T03:47:30;94777.25;;;7.03;100.00
27429;BME280;14881;48.092;11.574;2023-04-02T03:50:02;94780.25;;;7.01;100.00
27429;BME280;14881;48.092;11.574;2023-04-02T03:52:34;94785.38;;;7.03;100.00
27429;BME280;14881;48.092;11.574;2023-04-02T03:55:10;94777.25;;;7.03;100.00
27429;BME280;14881;48.092;11.574;2023-04-02T03:57:46;94780.78;;;7.03;100.00
27429;BME280;14881;48.092;11.574;2023-04-02T04:00:22;94779.16;;;7.02;100.00
27429;BME280;14881;48.092;11.574;2023-04-02T04:02:53;94780.78;;;7.03;100.00
27429;BME280;14881;48.092;11.574;2023-04-02T04:05:27;94790.75;;;7.03;100.00
27429;BME280;14881;48.092;11.574;2023-04-02T04:08:01;94790.00;;;6.97;100.00
27429;BME280;14881;48.092;11.574;2023-04-02T04:10:30;94794.06;;;6.94;100.00
27429;BME280;14881;48.092;11.574;2023-04-02T04:13:01;94800.81;;;6.97;100.00
27429;BME280;14881;48.092;11.574;2023-04-02T04:15:33;94802.94;;;7.00;100.00
27429;BME280;14881;48.092;11.574;2023-04-02T04:18:08;94802.13;;;6.99;100.00
27429;BME280;14881;48.092;11.574;2023-04-02T04:20:46;94794.59;;;6.96;100.00
27429;BME280;14881;48.092;11.574;2023-04-02T04:23:18;94802.44;;;6.93;100.00
27429;BME280;14881;48.092;11.574;2023-04-02T04:25:56;94800.56;;;6.93;100.00
27429;BME280;14881;48.092;11.574;2023-04-02T04:28:29;94807.91;;;6.88;100.00
27429;BME280;14881;48.092;11.574;2023-04-02T04:31:01;94808.75;;;6.83;100.00
27429;BME280;14881;48.092;11.574;2023-04-02T04:33:33;94822.25;;;6.83;100.00
27429;BME280;14881;48.092;11.574;2023-04-02T04:36:17;94827.38;;;6.85;100.00
27429;BME280;14881;48.092;11.574;2023-04-02T04:38:56;94825.47;;;6.85;100.00
27429;BME280;14881;48.092;11.574;2023-04-02T04:41:27;94826.03;;;6.82;100.00
27429;BME280;14881;48.092;11.574;2023-04-02T04:44:03;94827.69;;;6.78;100.00
27429;BME280;14881;48.092;11.574;2023-04-02T04:46:37;94833.38;;;6.77;100.00
27429;BME280;14881;48.092;11.574;2023-04-02T04:49:08;94830.44;;;6.73;100.00
27429;BME280;14881;48.092;11.574;2023-04-02T04:51:42;94833.44;;;6.72;100.00
27429;BME280;14881;48.092;11.574;2023-04-02T04:54:12;94841.25;;;6.73;100.00
27429;BME280;14881;48.092;11.574;2023-04-02T04:56:44;94840.19;;;6.69;100.00
27429;BME280;14881;48.092;11.574;2023-04-02T04:59:19;94844.25;;;6.67;100.00
27429;BME280;14881;48.092;11.574;2023-04-02T05:01:52;94844.25;;;6.67;100.00
27429;BME280;14881;48.092;11.574;2023-04-02T05:04:24;94856.13;;;6.66;100.00
27429;BME280;14881;48.092;11.574;2023-04-02T05:06:56;94857.50;;;6.63;100.00
27429;BME280;14881;48.092;11.574;2023-04-02T05:09:29;94860.47;;;6.61;100.00
27429;BME280;14881;48.092;11.574;2023-04-02T05:12:05;94864.75;;;6.68;100.00
27429;BME280;14881;48.092;11.574;2023-04-02T05:14:36;94875.00;;;6.71;100.00
27429;BME280;14881;48.092;11.574;2023-04-02T05:17:09;94874.50;;;6.63;100.00
27429;BME280;14881;48.092;11.574;2023-04-02T05:19:45;94884.19;;;6.64;100.00
27429;BME280;14881;48.092;11.574;2023-04-02T05:22:23;94873.69;;;6.63;100.00
27429;BME280;14881;48.092;11.574;2023-04-02T05:25:00;94881.78;;;6.63;100.00
27429;BME280;14881;48.092;11.574;2023-04-02T05:27:38;94883.66;;;6.68;100.00
27429;BME280;14881;48.092;11.574;2023-04-02T05:30:27;94894.69;;;6.71;100.00
27429;BME280;14881;48.092;11.574;2023-04-02T05:33:02;94880.66;;;6.74;100.00
27429;BME280;14881;48.092;11.574;2023-04-02T05:35:35;94899.22;;;6.76;100.00
27429;BME280;14881;48.092;11.574;2023-04-02T05:38:18;94900.28;;;6.80;100.00
27429;BME280;14881;48.092;11.574;2023-04-02T05:40:51;94900.56;;;6.78;100.00
27429;BME280;14881;48.092;11.574;2023-04-02T05:43:25;94899.47;;;6.79;100.00
27429;BME280;14881;48.092;11.574;2023-04-02T05:45:57;94903.81;;;6.80;100.00
27429;BME280;14881;48.092;11.574;2023-04-02T05:48:29;94914.31;;;6.82;100.00
27429;BME280;14881;48.092;11.574;2023-04-02T05:51:01;94909.97;;;6.86;100.00
27429;BME280;14881;48.092;11.574;2023-04-02T05:53:33;94912.41;;;6.87;100.00
27429;BME280;14881;48.092;11.574;2023-04-02T05:56:06;94916.19;;;6.86;100.00
27429;BME280;14881;48.092;11.574;2023-04-02T05:58:40;94925.94;;;6.82;100.00
27429;BME280;14881;48.092;11.574;2023-04-02T06:01:22;94915.63;;;6.89;100.00
27429;BME280;14881;48.092;11.574;2023-04-02T06:03:59;94918.56;;;6.93;100.00
27429;BME280;14881;48.092;11.574;2023-04-02T06:06:42;94917.47;;;6.94;100.00
27429;BME280;14881;48.092;11.574;2023-04-02T06:09:15;94926.09;;;6.96;100.00
27429;BME280;14881;48.092;11.574;2023-04-02T06:11:48;94927.22;;;6.90;100.00
27429;BME280;14881;48.092;11.574;2023-04-02T06:14:17;94926.66;;;6.93;100.00
27429;BME280;14881;48.092;11.574;2023-04-02T06:16:46;94927.16;;;7.00;100.00
27429;BME280;14881;48.092;11.574;2023-04-02T06:19:17;94939.56;;;7.01;100.00
27429;BME280;14881;48.092;11.574;2023-04-02T06:21:47;94937.41;;;7.03;100.00
27429;BME280;14881;48.092;11.574;2023-04-02T06:24:21;94939.31;;;6.97;100.00
27429;BME280;14881;48.092;11.574;2023-04-02T06:26:53;94934.16;;;7.01;100.00
27429;BME280;14881;48.092;11.574;2023-04-02T06:29:26;94933.06;;;7.07;100.00
27429;BME280;14881;48.092;11.574;2023-04-02T06:32:00;94935.47;;;7.09;100.00
27429;BME280;14881;48.092;11.574;2023-04-02T06:34:30;94941.69;;;7.09;100.00
27429;BME280;14881;48.092;11.574;2023-04-02T06:37:00;94938.66;;;7.16;100.00
27429;BME280;14881;48.092;11.574;2023-04-02T06:39:31;94944.59;;;7.13;100.00
27429;BME280;14881;48.092;11.574;2023-04-02T06:42:02;94945.66;;;7.17;100.00
27429;BME280;14881;48.092;11.574;2023-04-02T06:44:33;94947.53;;;7.21;100.00
27429;BME280;14881;48.092;11.574;2023-04-02T06:47:04;94954.78;;;7.26;100.00
27429;BME280;14881;48.092;11.574;2023-04-02T06:49:37;94963.66;;;7.31;100.00
27429;BME280;14881;48.092;11.574;2023-04-02T06:52:20;94955.28;;;7.28;100.00
27429;BME280;14881;48.092;11.574;2023-04-02T06:54:51;94966.03;;;7.38;100.00
27429;BME280;14881;48.092;11.574;2023-04-02T06:57:18;94963.28;;;7.43;100.00
27429;BME280;14881;48.092;11.574;2023-04-02T06:59:46;94961.88;;;7.51;100.00
27429;BME280;14881;48.092;11.574;2023-04-02T07:02:23;94971.34;;;7.48;100.00
27429;BME280;14881;48.092;11.574;2023-04-02T07:05:00;94978.22;;;7.64;100.00
27429;BME280;14881;48.092;11.574;2023-04-02T07:07:28;94980.47;;;7.57;100.00
27429;BME280;14881;48.092;11.574;2023-04-02T07:09:57;94981.47;;;7.66;100.00
27429;BME280;14881;48.092;11.574;2023-04-02T07:12:25;94982.50;;;7.71;100.00
27429;BME280;14881;48.092;11.574;2023-04-02T07:14:53;94986.50;;;7.78;100.00
27429;BME280;14881;48.092;11.574;2023-04-02T07:17:21;94984.81;;;7.82;100.00
27429;BME280;14881;48.092;11.574;2023-04-02T07:19:49;94991.28;;;7.86;100.00
27429;BME280;14881;48.092;11.574;2023-04-02T07:22:17;94995.13;;;7.80;100.00
27429;BME280;14881;48.092;11.574;2023-04-02T07:24:45;94998.50;;;7.96;100.00
27429;BME280;14881;48.092;11.574;2023-04-02T07:27:14;95002.22;;;8.00;100.00
27429;BME280;14881;48.092;11.574;2023-04-02T07:29:42;95000.78;;;8.13;100.00
27429;BME280;14881;48.092;11.574;2023-04-02T07:32:11;95002.28;;;8.24;100.00
27429;BME280;14881;48.092;11.574;2023-04-02T07:34:40;95009.78;;;8.32;100.00
27429;BME280;14881;48.092;11.574;2023-04-02T07:37:12;95003.75;;;8.40;100.00
27429;BME280;14881;48.092;11.574;2023-04-02T07:39:40;95003.31;;;8.52;100.00
27429;BME280;14881;48.092;11.574;2023-04-02T07:42:08;95008.16;;;8.79;100.00
27429;BME280;14881;48.092;11.574;2023-04-02T07:44:37;95007.38;;;8.54;100.00
27429;BME280;14881;48.092;11.574;2023-04-02T07:47:05;95020.56;;;8.61;100.00
27429;BME280;14881;48.092;11.574;2023-04-02T07:49:34;95022.09;;;8.67;100.00
27429;BME280;14881;48.092;11.574;2023-04-02T07:52:02;95027.94;;;8.55;100.00
27429;BME280;14881;48.092;11.574;2023-04-02T07:54:30;95028.97;;;8.59;100.00
27429;BME280;14881;48.092;11.574;2023-04-02T07:56:57;95031.09;;;8.62;100.00
27429;BME280;14881;48.092;11.574;2023-04-02T07:59:25;95020.13;;;8.49;100.00
27429;BME280;14881;48.092;11.574;2023-04-02T08:01:54;95035.75;;;8.57;100.00
27429;BME280;14881;48.092;11.574;2023-04-02T08:04:22;95031.31;;;8.66;100.00
27429;BME280;14881;48.092;11.574;2023-04-02T08:06:50;95036.56;;;8.81;100.00
27429;BME280;14881;48.092;11.574;2023-04-02T08:09:18;95050.22;;;8.95;100.00
27429;BME280;14881;48.092;11.574;2023-04-02T08:11:46;95043.53;;;9.06;100.00
27429;BME280;14881;48.092;11.574;2023-04-02T08:14:14;95050.88;;;9.05;100.00
27429;BME280;14881;48.092;11.574;2023-04-02T08:16:48;95048.34;;;9.14;100.00
27429;BME280;14881;48.092;11.574;2023-04-02T08:19:18;95050.00;;;9.10;100.00
27429;BME280;14881;48.092;11.574;2023-04-02T08:21:46;95053.00;;;9.08;100.00
27429;BME280;14881;48.092;11.574;2023-04-02T08:24:16;95061.78;;;9.19;100.00
27429;BME280;14881;48.092;11.574;2023-04-02T08:26:45;95052.00;;;9.23;100.00
27429;BME280;14881;48.092;11.574;2023-04-02T08:29:13;95048.75;;;9.21;100.00
27429;BME280;14881;48.092;11.574;2023-04-02T08:31:40;95053.03;;;9.27;100.00
27429;BME280;14881;48.092;11.574;2023-04-02T08:34:08;95061.81;;;9.38;100.00
27429;BME280;14881;48.092;11.574;2023-04-02T08:36:38;95053.91;;;9.60;100.00
27429;BME280;14881;48.092;11.574;2023-04-02T08:39:08;95052.50;;;9.82;100.00
27429;BME280;14881;48.092;11.574;2023-04-02T08:41:43;95046.41;;;9.71;100.00
27429;BME280;14881;48.092;11.574;2023-04-02T08:44:20;95050.81;;;9.86;100.00
27429;BME280;14881;48.092;11.574;2023-04-02T08:46:51;95058.31;;;9.89;100.00
27429;BME280;14881;48.092;11.574;2023-04-02T08:49:26;95068.56;;;10.10;100.00
27429;BME280;14881;48.092;11.574;2023-04-02T08:51:57;95060.84;;;9.85;100.00
27429;BME280;14881;48.092;11.574;2023-04-02T08:54:27;95066.53;;;10.02;100.00
27429;BME280;14881;48.092;11.574;2023-04-02T08:56:59;95057.88;;;10.00;100.00
27429;BME280;14881;48.092;11.574;2023-04-02T08:59:31;95062.25;;;10.15;100.00
27429;BME280;14881;48.092;11.574;2023-04-02T09:02:11;95074.19;;;10.14;100.00
27429;BME280;14881;48.092;11.574;2023-04-02T09:04:46;95062.88;;;10.26;100.00
27429;BME280;14881;48.092;11.574;2023-04-02T09:07:16;95078.28;;;9.98;100.00
27429;BME280;14881;48.092;11.574;2023-04-02T09:09:47;95077.31;;;9.89;100.00
27429;BME280;14881;48.092;11.574;2023-04-02T09:12:17;95077.03;;;9.90;100.00
27429;BME280;14881;48.092;11.574;2023-04-02T09:14:55;95086.38;;;10.17;100.00
27429;BME280;14881;48.092;11.574;2023-04-02T09:17:25;95090.63;;;10.23;100.00
27429;BME280;14881;48.092;11.574;2023-04-02T09:20:00;95082.56;;;10.50;100.00
27429;BME280;14881;48.092;11.574;2023-04-02T09:22:35;95085.09;;;10.60;100.00
27429;BME280;14881;48.092;11.574;2023-04-02T09:25:05;95090.34;;;10.24;100.00
27429;BME280;14881;48.092;11.574;2023-04-02T09:27:38;95086.66;;;10.34;100.00
27429;BME280;14881;48.092;11.574;2023-04-02T09:30:13;95088.66;;;10.42;100.00
27429;BME280;14881;48.092;11.574;2023-04-02T09:32:48;95101.00;;;10.21;100.00
27429;BME280;14881;48.092;11.574;2023-04-02T09:35:18;95099.09;;;10.67;100.00
27429;BME280;14881;48.092;11.574;2023-04-02T09:38:17;95102.09;;;10.52;100.00
27429;BME280;14881;48.092;11.574;2023-04-02T09:40:47;95106.31;;;10.58;100.00
27429;BME280;14881;48.092;11.574;2023-04-02T09:43:17;95102.69;;;10.49;100.00
27429;BME280;14881;48.092;11.574;2023-04-02T09:45:55;95107.75;;;10.83;100.00
27429;BME280;14881;48.092;11.574;2023-04-02T09:48:29;95108.44;;;10.75;100.00
27429;BME280;14881;48.092;11.574;2023-04-02T09:51:08;95111.59;;;10.96;100.00
27429;BME280;14881;48.092;11.574;2023-04-02T09:53:40;95094.97;;;11.11;100.00
27429;BME280;14881;48.092;11.574;2023-04-02T09:56:14;95107.97;;;11.14;100.00
27429;BME280;14881;48.092;11.574;2023-04-02T09:58:43;95113.00;;;11.07;100.00
27429;BME280;14881;48.092;11.574;2023-04-02T10:01:29;95117.22;;;11.27;100.00
27429;BME280;14881;48.092;11.574;2023-04-02T10:03:58;95107.66;;;11.15;100.00
27429;BME280;14881;48.092;11.574;2023-04-02T10:06:27;95115.09;;;10.96;100.00
27429;BME280;14881;48.092;11.574;2023-04-02T10:08:57;95120.44;;;11.15;100.00
27429;BME280;14881;48.092;11.574;2023-04-02T10:11:28;95119.75;;;11.09;100.00
27429;BME280;14881;48.092;11.574;2023-04-02T10:14:15;95127.50;;;10.89;100.00
27429;BME280;14881;48.092;11.574;2023-04-02T10:16:48;95129.34;;;10.61;100.00
27429;BME280;14881;48.092;11.574;2023-04-02T10:19:22;95122.84;;;10.75;100.00
27429;BME280;14881;48.092;11.574;2023-04-02T10:21:53;95121.13;;;10.66;100.00
27429;BME280;14881;48.092;11.574;2023-04-02T10:24:25;95127.38;;;10.80;100.00
27429;BME280;14881;48.092;11.574;2023-04-02T10:27:01;95116.00;;;10.78;100.00
27429;BME280;14881;48.092;11.574;2023-04-02T10:29:47;95126.78;;;10.83;100.00
27429;BME280;14881;48.092;11.574;2023-04-02T10:32:19;95125.75;;;10.79;100.00
27429;BME280;14881;48.092;11.574;2023-04-02T10:34:55;95121.78;;;10.90;100.00
27429;BME280;14881;48.092;11.574;2023-04-02T10:37:47;95122.66;;;10.86;100.00
27429;BME280;14881;48.092;11.574;2023-04-02T10:40:26;95126.88;;;10.78;100.00
27429;BME280;14881;48.092;11.574;2023-04-02T10:45:50;95124.72;;;11.71;100.00
27429;BME280;14881;48.092;11.574;2023-04-02T10:48:26;95126.84;;;11.74;100.00
27429;BME280;14881;48.092;11.574;2023-04-02T10:51:02;95123.25;;;12.01;100.00
27429;BME280;14881;48.092;11.574;2023-04-02T10:53:36;95114.84;;;12.33;100.00
27429;BME280;14881;48.092;11.574;2023-04-02T10:56:11;95125.78;;;12.64;100.00
27429;BME280;14881;48.092;11.574;2023-04-02T10:58:44;95119.22;;;12.96;100.00
27429;BME280;14881;48.092;11.574;2023-04-02T11:01:19;95125.00;;;13.26;100.00
27429;BME280;14881;48.092;11.574;2023-04-02T11:03:53;95120.66;;;13.24;100.00
27429;BME280;14881;48.092;11.574;2023-04-02T11:06:26;95112.66;;;13.28;100.00
27429;BME280;14881;48.092;11.574;2023-04-02T11:08:59;95128.59;;;13.52;100.00
27429;BME280;14881;48.092;11.574;2023-04-02T11:11:35;95119.66;;;13.77;100.00
27429;BME280;14881;48.092;11.574;2023-04-02T11:14:11;95119.81;;;13.89;100.00
27429;BME280;14881;48.092;11.574;2023-04-02T11:16:40;95119.66;;;13.86;100.00
27429;BME280;14881;48.092;11.574;2023-04-02T11:19:25;95124.91;;;13.48;100.00
27429;BME280;14881;48.092;11.574;2023-04-02T11:21:55;95123.81;;;13.18;100.00
27429;BME280;14881;48.092;11.574;2023-04-02T11:24:38;95126.88;;;13.16;100.00
27429;BME280;14881;48.092;11.574;2023-04-02T11:27:17;95130.66;;;12.76;100.00
27429;BME280;14881;48.092;11.574;2023-04-02T11:29:48;95130.22;;;12.82;100.00
27429;BME280;14881;48.092;11.574;2023-04-02T11:32:40;95137.66;;;12.90;100.00
27429;BME280;14881;48.092;11.574;2023-04-02T11:35:25;95132.97;;;12.60;100.00
27429;BME280;14881;48.092;11.574;2023-04-02T11:37:55;95148.66;;;12.54;100.00
27429;BME280;14881;48.092;11.574;2023-04-02T11:40:42;95143.69;;;12.34;100.00
27429;BME280;14881;48.092;11.574;2023-04-02T11:43:47;95147.78;;;12.23;100.00
27429;BME280;14881;48.092;11.574;2023-04-02T11:46:48;95152.06;;;12.60;100.00
27429;BME280;14881;48.092;11.574;2023-04-02T11:49:38;95151.75;;;12.62;100.00
27429;BME280;14881;48.092;11.574;2023-04-02T11:52:20;95153.59;;;12.75;100.00
27429;BME280;14881;48.092;11.574;2023-04-02T11:54:55;95154.16;;;12.63;100.00
27429;BME280;14881;48.092;11.574;2023-04-02T11:57:36;95156.41;;;12.61;100.00
27429;BME280;14881;48.092;11.574;2023-04-02T12:00:24;95158.06;;;12.71;100.00
27429;BME280;14881;48.092;11.574;2023-04-02T12:03:03;95158.81;;;12.63;100.00
27429;BME280;14881;48.092;11.574;2023-04-02T12:05:41;95155.69;;;12.78;100.00
27429;BME280;14881;48.092;11.574;2023-04-02T12:08:23;95160.41;;;13.17;100.00
27429;BME280;14881;48.092;11.574;2023-04-02T12:10:58;95163.19;;;13.26;100.00
27429;BME280;14881;48.092;11.574;2023-04-02T12:13:46;95165.06;;;13.16;100.00
27429;BME280;14881;48.092;11.574;2023-04-02T12:16:16;95171.91;;;12.83;100.00
27429;BME280;14881;48.092;11.574;2023-04-02T12:18:46;95172.97;;;12.51;100.00
27429;BME280;14881;48.092;11.574;2023-04-02T12:21:18;95175.88;;;12.10;100.00
27429;BME280;14881;48.092;11.574;2023-04-02T12:23:46;95177.63;;;12.28;100.00
27429;BME280;14881;48.092;11.574;2023-04-02T12:26:27;95182.28;;;12.28;100.00
27429;BME280;14881;48.092;11.574;2023-04-02T12:29:21;95180.78;;;12.22;100.00
27429;BME280;14881;48.092;11.574;2023-04-02T12:31:51;95177.63;;;12.73;100.00
27429;BME280;14881;48.092;11.574;2023-04-02T12:34:21;95167.84;;;13.34;100.00
27429;BME280;14881;48.092;11.574;2023-04-02T12:36:51;95171.56;;;14.03;100.00
27429;BME280;14881;48.092;11.574;2023-04-02T12:39:20;95167.63;;;14.52;100.00
27429;BME280;14881;48.092;11.574;2023-04-02T12:41:48;95164.88;;;14.61;100.00
27429;BME280;14881;48.092;11.574;2023-04-02T12:44:17;95172.59;;;14.42;100.00
27429;BME280;14881;48.092;11.574;2023-04-02T12:46:52;95175.88;;;13.78;100.00
27429;BME280;14881;48.092;11.574;2023-04-02T12:49:35;95187.34;;;12.65;100.00
27429;BME280;14881;48.092;11.574;2023-04-02T12:52:06;95190.00;;;11.98;100.00
27429;BME280;14881;48.092;11.574;2023-04-02T12:54:37;95194.38;;;11.17;100.00
27429;BME280;14881;48.092;11.574;2023-04-02T12:57:29;95211.84;;;10.84;100.00
27429;BME280;14881;48.092;11.574;2023-04-02T12:59:58;95225.09;;;10.71;100.00
27429;BME280;14881;48.092;11.574;2023-04-02T13:02:30;95214.94;;;10.77;100.00
27429;BME280;14881;48.092;11.574;2023-04-02T13:05:00;95217.06;;;10.80;100.00
27429;BME280;14881;48.092;11.574;2023-04-02T13:07:30;95216.53;;;10.78;100.00
27429;BME280;14881;48.092;11.574;2023-04-02T13:09:59;95220.25;;;10.68;100.00
27429;BME280;14881;48.092;11.574;2023-04-02T13:12:30;95224.28;;;10.71;100.00
27429;BME280;14881;48.092;11.574;2023-04-02T13:15:00;95219.50;;;10.95;100.00
27429;BME280;14881;48.092;11.574;2023-04-02T13:17:38;95209.19;;;11.25;100.00
27429;BME280;14881;48.092;11.574;2023-04-02T13:20:30;95210.50;;;11.55;100.00
27429;BME280;14881;48.092;11.574;2023-04-02T13:22:59;95211.63;;;11.54;100.00
27429;BME280;14881;48.092;11.574;2023-04-02T13:25:29;95209.28;;;11.61;100.00
27429;BME280;14881;48.092;11.574;2023-04-02T13:27:58;95214.25;;;11.59;100.00